Time;durP1;ratioP1;P1;durP2;ratioP2;P2;SDS_P1;SDS_P2;PMS_P1;PMS_P2;Temp;Humidity;BMP_temperature;BMP_pressure;BME280_temperature;BME280_humidity;BME280_pressure;Samples;Min_cycle;Max_cycle;Signal;HPM_P1;HPM_P2
2022/02/25 00:00:19;;;;;;;0.93;0.88;;;;;;;6.80;53.86;101657.81;5046495;28;20033;-81
2022/02/25 00:02:45;;;;;;;0.10;0.10;;;;;;;6.78;53.39;101662.19;5057168;28;20038;-82
2022/02/25 00:05:11;;;;;;;0.10;0.10;;;;;;;6.71;53.58;101668.25;5064640;28;20032;-82
2022/02/25 00:07:38;;;;;;;0.10;0.10;;;;;;;6.71;53.49;101670.91;5063587;28;20033;-82
2022/02/25 00:10:05;;;;;;;0.35;0.32;;;;;;;6.64;54.06;101671.69;5059639;28;20033;-81
2022/02/25 00:12:32;;;;;;;0.10;0.10;;;;;;;6.76;53.80;101671.81;5062133;28;20032;-82
2022/02/25 00:15:00;;;;;;;0.10;0.10;;;;;;;6.69;53.96;101666.47;5050255;28;20037;-81
2022/02/25 00:17:26;;;;;;;0.10;0.10;;;;;;;6.73;53.43;101669.16;5049059;28;20079;-81
2022/02/25 00:19:52;;;;;;;0.10;0.10;;;;;;;6.77;54.11;101670.06;5046730;28;20396;-82
2022/02/25 00:22:18;;;;;;;0.10;0.10;;;;;;;6.85;54.16;101672.78;5034858;28;20065;-82
2022/02/25 00:24:46;;;;;;;0.10;0.10;;;;;;;6.82;53.98;101675.38;5035269;28;20029;-82
2022/02/25 00:27:12;;;;;;;0.10;0.10;;;;;;;6.76;54.16;101673.56;5037156;28;20029;-80
2022/02/25 00:29:38;;;;;;;0.10;0.10;;;;;;;6.78;54.46;101678.00;5048645;28;20431;-82
2022/02/25 00:32:05;;;;;;;0.10;0.10;;;;;;;6.71;54.59;101697.22;5052813;28;20079;-82
2022/02/25 00:34:31;;;;;;;0.10;0.10;;;;;;;6.78;54.56;101701.69;5051952;28;20052;-82
2022/02/25 00:36:57;;;;;;;0.10;0.10;;;;;;;6.79;54.48;101699.94;5045407;28;20033;-82
2022/02/25 00:39:23;;;;;;;0.65;0.65;;;;;;;6.78;54.69;101693.78;5045053;28;20417;-81
2022/02/25 00:42:04;;;;;;;0.10;0.10;;;;;;;6.89;54.80;101685.09;5042550;28;20041;-82
2022/02/25 00:44:31;;;;;;;0.10;0.10;;;;;;;6.86;54.38;101685.09;5034186;28;20036;-81
2022/02/25 00:46:57;;;;;;;0.10;0.10;;;;;;;6.80;54.80;101681.53;5040903;28;20045;-80
2022/02/25 00:49:23;;;;;;;0.10;0.10;;;;;;;6.77;54.96;101689.38;5046323;28;20552;-80
2022/02/25 00:51:50;;;;;;;0.10;0.10;;;;;;;6.75;55.01;101691.16;5050741;28;20036;-79
2022/02/25 00:54:16;;;;;;;0.10;0.10;;;;;;;6.69;55.23;101683.19;5051471;28;20033;-80
2022/02/25 00:56:43;;;;;;;0.10;0.10;;;;;;;6.82;54.93;101683.28;5044565;28;20033;-82
2022/02/25 00:59:09;;;;;;;0.20;0.20;;;;;;;6.67;55.21;101687.53;5047743;28;20029;-81
2022/02/25 01:01:35;;;;;;;0.10;0.10;;;;;;;6.71;55.18;101697.22;5044967;28;20047;-81
2022/02/25 01:04:02;;;;;;;0.10;0.10;;;;;;;6.72;55.13;101698.13;5042161;28;20057;-82
2022/02/25 01:06:28;;;;;;;0.15;0.15;;;;;;;6.84;55.41;101702.63;5049558;28;20037;-80
2022/02/25 01:08:54;;;;;;;0.10;0.10;;;;;;;6.85;55.22;101693.84;5047244;28;20029;-82
2022/02/25 01:11:20;;;;;;;0.10;0.10;;;;;;;6.81;55.32;101695.56;5049254;28;20082;-80
2022/02/25 01:13:47;;;;;;;0.10;0.10;;;;;;;6.86;55.25;101687.72;5047268;28;20037;-81
2022/02/25 01:16:13;;;;;;;0.10;0.10;;;;;;;6.83;55.50;101690.31;5050717;28;20023;-82
2022/02/25 01:18:40;;;;;;;0.10;0.10;;;;;;;6.82;55.31;101688.53;5057920;22;20045;-82
2022/02/25 01:21:06;;;;;;;0.00;0.00;;;;;;;6.73;55.49;101690.25;5051155;28;20089;-81
2022/02/25 01:23:33;;;;;;;0.10;0.10;;;;;;;6.84;55.28;101697.34;5051911;28;20033;-79
2022/02/25 01:26:00;;;;;;;0.10;0.10;;;;;;;6.84;55.32;101692.06;5050959;28;20091;-80
2022/02/25 01:28:27;;;;;;;0.10;0.10;;;;;;;6.89;55.22;101683.38;5052913;28;20029;-78
2022/02/25 01:30:53;;;;;;;0.10;0.10;;;;;;;6.88;55.20;101685.97;5050921;28;20472;-80
2022/02/25 01:33:19;;;;;;;0.10;0.10;;;;;;;6.82;54.99;101692.06;5046798;28;20116;-81
2022/02/25 01:35:45;;;;;;;0.10;0.10;;;;;;;6.90;55.20;101686.88;5051547;28;20061;-80
2022/02/25 01:38:12;;;;;;;0.10;0.10;;;;;;;6.89;55.16;101696.53;5050907;28;20025;-82
2022/02/25 01:40:38;;;;;;;0.10;0.10;;;;;;;6.82;55.15;101699.06;5051077;28;20035;-81
2022/02/25 01:43:04;;;;;;;0.10;0.10;;;;;;;6.76;55.28;101702.56;5051247;28;20056;-80
2022/02/25 01:45:35;;;;;;;0.10;0.10;;;;;;;6.83;55.12;101700.84;5049027;28;20071;-81
2022/02/25 01:48:02;;;;;;;0.10;0.10;;;;;;;6.86;55.12;101699.13;5051501;28;20421;-80
2022/02/25 01:50:30;;;;;;;0.10;0.10;;;;;;;6.80;55.42;101702.59;5049814;28;20068;-81
2022/02/25 01:53:01;;;;;;;1.23;1.20;;;;;;;6.90;55.16;101702.69;5050273;28;20454;-79
2022/02/25 01:55:30;;;;;;;0.15;0.15;;;;;;;6.93;55.00;101702.72;5049912;28;20075;-81
2022/02/25 01:57:56;;;;;;;0.10;0.10;;;;;;;6.95;55.13;101696.59;5051441;28;20058;-82
2022/02/25 02:00:23;;;;;;;0.10;0.10;;;;;;;6.89;55.32;101699.16;5051024;28;20020;-83
2022/02/25 02:02:49;;;;;;;0.10;0.10;;;;;;;6.89;55.37;101699.16;5051361;28;20059;-82
2022/02/25 02:05:16;;;;;;;0.10;0.10;;;;;;;6.97;55.34;101697.47;5050461;28;20119;-81
2022/02/25 02:07:43;;;;;;;0.10;0.10;;;;;;;7.04;55.45;101692.25;5048846;28;20038;-81
2022/02/25 02:10:10;;;;;;;0.10;0.10;;;;;;;7.03;55.43;101691.38;5050293;28;20047;-81
2022/02/25 02:12:36;;;;;;;0.10;0.10;;;;;;;7.01;55.13;101701.00;5050882;28;20029;-82
2022/02/25 02:15:04;;;;;;;0.17;0.17;;;;;;;7.01;54.99;101694.88;5050810;28;20036;-82
2022/02/25 02:17:31;;;;;;;0.10;0.10;;;;;;;7.06;55.23;101688.75;5048744;28;20511;-79
2022/02/25 02:20:00;;;;;;;0.10;0.10;;;;;;;7.14;54.92;101696.75;5050857;28;20032;-83
2022/02/25 02:22:27;;;;;;;0.05;0.05;;;;;;;7.08;54.60;101699.34;5050472;28;20029;-82
2022/02/25 02:24:54;;;;;;;0.10;0.10;;;;;;;7.15;54.35;101692.34;5042091;28;20037;-82
2022/02/25 02:27:20;;;;;;;0.10;0.10;;;;;;;7.10;54.73;101694.94;5050248;28;20032;-81
2022/02/25 02:29:47;;;;;;;1.75;1.65;;;;;;;7.13;54.66;101690.56;5049892;28;20464;-81
2022/02/25 02:32:13;;;;;;;0.10;0.10;;;;;;;7.13;55.06;101690.56;5050691;28;20033;-82
2022/02/25 02:34:40;;;;;;;0.10;0.10;;;;;;;7.12;55.00;101694.06;5051750;28;20442;-81
2022/02/25 02:37:07;;;;;;;0.10;0.10;;;;;;;7.00;55.34;101693.09;5051778;28;20036;-81
2022/02/25 02:39:34;;;;;;;0.10;0.10;;;;;;;7.10;55.41;101680.03;5045967;28;20492;-80
2022/02/25 02:42:19;;;;;;;0.10;0.10;;;;;;;7.20;55.46;101672.16;5050628;28;20029;-81
2022/02/25 02:44:47;;;;;;;0.10;0.10;;;;;;;7.11;55.72;101675.63;5049679;28;20032;-82
2022/02/25 02:47:13;;;;;;;0.20;0.20;;;;;;;7.24;55.22;101679.22;5050359;28;20025;-82
2022/02/25 02:49:39;;;;;;;0.10;0.10;;;;;;;7.17;55.19;101680.06;5046232;28;20033;-82
2022/02/25 02:52:06;;;;;;;0.00;0.00;;;;;;;7.20;55.63;101680.06;5044361;28;20032;-82
2022/02/25 02:54:32;;;;;;;0.10;0.10;;;;;;;7.32;55.22;101672.25;5050667;28;20071;-81
2022/02/25 02:56:59;;;;;;;0.00;0.00;;;;;;;7.27;55.63;101674.00;5051503;28;20041;-82
2022/02/25 02:59:25;;;;;;;0.10;0.10;;;;;;;7.21;55.63;101671.31;5050822;28;20186;-84
2022/02/25 03:01:51;;;;;;;0.20;0.20;;;;;;;7.27;55.21;101676.63;5044474;28;20029;-81
2022/02/25 03:04:17;;;;;;;0.75;0.75;;;;;;;7.37;55.37;101667.91;5050536;28;20595;-83
2022/02/25 03:06:44;;;;;;;0.10;0.10;;;;;;;7.43;55.12;101667.94;5050819;28;20025;-83
2022/02/25 03:09:11;;;;;;;0.17;0.17;;;;;;;7.41;55.37;101674.06;5040563;28;20037;-83
2022/02/25 03:11:39;;;;;;;0.10;0.10;;;;;;;7.36;55.92;101671.41;5036899;28;20054;-82
2022/02/25 03:14:05;;;;;;;1.00;1.00;;;;;;;7.21;56.38;101671.31;5036109;28;20104;-83
2022/02/25 03:16:31;;;;;;;0.32;0.32;;;;;;;7.03;56.88;101677.31;5038402;28;20481;-80
2022/02/25 03:18:58;;;;;;;1.23;0.73;;;;;;;6.95;57.20;101674.59;5051027;28;20048;-82
2022/02/25 03:21:24;;;;;;;0.10;0.10;;;;;;;7.00;57.06;101672.91;5049597;28;20033;-81
2022/02/25 03:23:52;;;;;;;0.10;0.10;;;;;;;6.97;57.28;101670.25;5051585;28;20025;-82
2022/02/25 03:26:18;;;;;;;0.10;0.10;;;;;;;6.84;57.70;101665.75;5046534;28;20507;-82
2022/02/25 03:28:46;;;;;;;0.10;0.10;;;;;;;6.83;57.78;101658.69;5051053;28;20450;-82
2022/02/25 03:31:12;;;;;;;0.10;0.10;;;;;;;6.78;57.82;101667.44;5050278;28;20117;-82
2022/02/25 03:33:40;;;;;;;0.10;0.10;;;;;;;6.86;57.50;101669.28;5051672;28;20487;-81
2022/02/25 03:36:06;;;;;;;0.10;0.10;;;;;;;6.78;57.57;101667.44;5049329;28;20037;-81
2022/02/25 03:38:32;;;;;;;0.10;0.10;;;;;;;6.73;58.27;101674.44;5051568;28;20063;-81
2022/02/25 03:40:58;;;;;;;0.00;0.00;;;;;;;6.66;58.65;101677.00;5041783;28;20392;-82
2022/02/25 03:43:24;;;;;;;0.17;0.17;;;;;;;6.48;59.34;101679.47;5035970;28;20033;-82
2022/02/25 03:45:51;;;;;;;0.10;0.10;;;;;;;6.50;59.37;101684.72;5047725;28;20059;-82
2022/02/25 03:48:17;;;;;;;0.10;0.10;;;;;;;6.63;59.07;101683.13;5041305;28;20022;-82
2022/02/25 03:50:43;;;;;;;0.13;0.13;;;;;;;6.47;59.60;101682.09;5043004;28;20111;-82
2022/02/25 03:53:09;;;;;;;0.10;0.10;;;;;;;6.69;59.15;101677.91;5051163;28;20036;-81
2022/02/25 03:55:35;;;;;;;19.85;3.95;;;;;;;6.76;59.00;101676.22;5052781;28;20075;-82
2022/02/25 03:58:03;;;;;;;0.15;0.15;;;;;;;6.85;58.92;101678.91;5046329;28;20029;-82
2022/02/25 04:00:29;;;;;;;0.10;0.10;;;;;;;6.95;58.56;101691.31;5048591;28;20467;-82
2022/02/25 04:02:56;;;;;;;0.10;0.10;;;;;;;6.99;58.62;101681.69;5042259;28;20068;-82
2022/02/25 04:05:23;;;;;;;0.30;0.30;;;;;;;7.07;58.19;101677.34;5052571;28;20032;-81
2022/02/25 04:07:50;;;;;;;0.10;0.10;;;;;;;7.10;58.39;101685.28;5047949;28;20025;-81
2022/02/25 04:10:17;;;;;;;0.10;0.10;;;;;;;7.13;57.94;101682.66;5044745;28;20126;-82
2022/02/25 04:12:43;;;;;;;0.10;0.10;;;;;;;7.08;58.67;101686.16;5053618;28;20029;-82
2022/02/25 04:15:09;;;;;;;0.10;0.10;;;;;;;6.98;58.63;101682.56;5045107;28;20116;-82
2022/02/25 04:20:14;;;;;;;0.10;0.10;;;;;;;6.87;59.27;101693.00;5041200;28;20037;-81
2022/02/25 04:22:41;;;;;;;0.10;0.10;;;;;;;6.77;59.58;101688.53;5047808;28;20037;-81
2022/02/25 04:25:09;;;;;;;0.10;0.10;;;;;;;6.75;59.31;101692.88;5040624;28;20061;-83
2022/02/25 04:27:36;;;;;;;0.10;0.10;;;;;;;6.74;59.72;101678.84;5059938;28;20061;-81
2022/02/25 04:30:02;;;;;;;0.10;0.10;;;;;;;6.76;59.64;101679.72;5041000;28;20025;-79
2022/02/25 04:32:29;;;;;;;0.75;0.75;;;;;;;6.72;60.03;101684.97;5035203;28;20489;-81
2022/02/25 04:34:55;;;;;;;0.10;0.10;;;;;;;6.69;60.39;101688.44;5041762;28;20036;-81
2022/02/25 04:37:21;;;;;;;0.10;0.10;;;;;;;6.73;60.57;101679.69;5031260;28;20030;-83
2022/02/25 04:39:47;;;;;;;0.10;0.10;;;;;;;6.78;60.24;101688.53;5035758;28;20041;-81
2022/02/25 04:42:13;;;;;;;0.00;0.00;;;;;;;6.72;60.35;101677.94;5001247;28;20092;-83
2022/02/25 04:44:39;;;;;;;0.10;0.10;;;;;;;6.67;60.98;101684.91;5027922;28;20029;-82
2022/02/25 04:47:06;;;;;;;0.10;0.10;;;;;;;6.71;61.13;101670.91;5021184;28;20576;-80
2022/02/25 04:49:33;;;;;;;0.10;0.10;;;;;;;6.70;61.23;101679.66;5032263;28;20061;-82
2022/02/25 04:51:59;;;;;;;0.10;0.10;;;;;;;6.74;61.00;101681.47;5014463;28;20037;-82
2022/02/25 04:54:26;;;;;;;29.50;1.25;;;;;;;6.83;61.04;101674.50;5032723;28;20046;-82
2022/02/25 04:56:52;;;;;;;0.10;0.10;;;;;;;6.73;61.63;101668.25;5031776;28;20038;-80
2022/02/25 04:59:18;;;;;;;0.10;0.10;;;;;;;6.83;61.21;101682.41;5017747;28;20037;-79
2022/02/25 05:01:46;;;;;;;0.10;0.10;;;;;;;6.93;61.52;101687.78;5019782;28;20032;-79
2022/02/25 05:04:13;;;;;;;0.10;0.10;;;;;;;7.04;61.76;101674.69;5023470;28;20021;-81
2022/02/25 05:06:39;;;;;;;0.10;0.10;;;;;;;7.10;61.99;101685.28;5023141;28;20393;-82
2022/02/25 05:09:05;;;;;;;1.15;1.08;;;;;;;7.06;62.67;101688.75;5030456;28;20435;-82
2022/02/25 05:11:32;;;;;;;1.10;1.00;;;;;;;7.02;63.02;101681.69;5015956;28;20056;-80
2022/02/25 05:13:58;;;;;;;0.08;0.08;;;;;;;7.05;63.74;101723.00;5021286;28;20036;-80
2022/02/25 05:21:56;;;;;;;0.10;0.10;;;;;;;6.99;64.03;101692.22;5012820;28;20046;-81
2022/02/25 05:24:22;;;;;;;0.10;0.10;;;;;;;6.91;64.59;101700.03;5019740;28;20026;-81
2022/02/25 05:26:49;;;;;;;0.10;0.10;;;;;;;6.78;65.36;101706.97;5014890;28;20034;-80
2022/02/25 05:29:15;;;;;;;0.10;0.10;;;;;;;6.77;65.34;101707.81;5023194;28;20049;-81
2022/02/25 05:31:41;;;;;;;0.10;0.10;;;;;;;6.85;65.55;101707.03;5015540;28;20029;-81
2022/02/25 05:34:15;;;;;;;0.17;0.17;;;;;;;6.85;65.91;101728.09;5018382;28;20041;-79
2022/02/25 05:36:46;;;;;;;0.10;0.10;;;;;;;6.87;66.12;101713.19;5014749;28;20068;-79
2022/02/25 05:39:12;;;;;;;0.10;0.10;;;;;;;6.84;66.07;101719.31;5025334;28;20041;-81
2022/02/25 05:41:39;;;;;;;0.10;0.10;;;;;;;6.93;65.47;101711.50;5020033;28;20116;-81
2022/02/25 05:44:05;;;;;;;2.65;1.27;;;;;;;7.10;64.99;101716.91;5020874;28;20362;-81
2022/02/25 05:46:31;;;;;;;0.10;0.10;;;;;;;7.17;65.22;101722.25;5014232;28;20030;-79
2022/02/25 05:48:58;;;;;;;0.10;0.10;;;;;;;7.09;65.48;101720.41;5051504;22;20200;-80
2022/02/25 05:51:24;;;;;;;0.10;0.10;;;;;;;7.08;65.37;101739.72;5053791;28;20041;-81
2022/02/25 05:53:50;;;;;;;0.10;0.10;;;;;;;7.19;65.12;101733.66;5054076;28;20052;-80
2022/02/25 05:56:16;;;;;;;0.00;0.00;;;;;;;7.15;65.02;101731.88;5053049;28;20480;-81
2022/02/25 05:58:42;;;;;;;0.40;0.40;;;;;;;7.11;65.13;101731.84;5053570;28;20119;-82
2022/02/25 06:01:08;;;;;;;0.10;0.10;;;;;;;7.09;64.78;101740.59;5052773;28;20435;-81
2022/02/25 06:03:34;;;;;;;0.13;0.13;;;;;;;7.12;64.45;101745.91;5050858;28;20437;-81
2022/02/25 06:06:00;;;;;;;0.15;0.15;;;;;;;7.15;63.39;101745.06;5046882;28;20024;-81
2022/02/25 06:08:26;;;;;;;0.10;0.10;;;;;;;7.30;63.13;101753.06;5053611;28;20036;-81
2022/02/25 06:10:53;;;;;;;0.10;0.10;;;;;;;7.22;63.24;101766.19;5051859;28;20032;-81
2022/02/25 06:13:19;;;;;;;1.05;0.98;;;;;;;7.23;62.46;101765.34;5051349;28;20021;-81
2022/02/25 06:15:46;;;;;;;0.00;0.00;;;;;;;7.24;62.47;101766.22;5047008;28;20384;-81
2022/02/25 06:18:12;;;;;;;0.10;0.10;;;;;;;7.31;61.97;101783.84;5053714;28;20025;-82
2022/02/25 06:20:38;;;;;;;0.10;0.10;;;;;;;7.34;61.51;101793.53;5053002;28;20029;-82
2022/02/25 06:23:05;;;;;;;17.92;1.95;;;;;;;7.32;61.02;101795.28;5050833;28;20484;-81
2022/02/25 06:25:32;;;;;;;0.10;0.10;;;;;;;7.35;60.50;101798.84;5036729;28;20022;-82
2022/02/25 06:27:58;;;;;;;0.10;0.10;;;;;;;7.55;60.73;101791.09;5046984;28;20496;-82
2022/02/25 06:30:24;;;;;;;0.93;0.90;;;;;;;7.56;60.40;101799.88;5043114;28;20060;-82
2022/02/25 06:32:50;;;;;;;0.10;0.10;;;;;;;7.46;60.48;101835.84;5053128;28;20052;-81
2022/02/25 06:35:16;;;;;;;1.30;1.30;;;;;;;7.65;59.70;101810.50;5051839;28;20033;-82
2022/02/25 06:37:42;;;;;;;0.10;0.10;;;;;;;7.53;59.73;101818.31;5051710;28;20036;-82
2022/02/25 06:40:12;;;;;;;0.10;0.10;;;;;;;7.67;59.58;101819.31;5028205;28;20025;-82
2022/02/25 06:42:40;;;;;;;0.13;0.13;;;;;;;7.72;59.24;101824.63;5041241;28;20779;-81
2022/02/25 06:45:07;;;;;;;0.10;0.10;;;;;;;7.75;59.65;101822.91;5048847;28;20032;-82
2022/02/25 06:47:34;;;;;;;0.03;0.03;;;;;;;7.83;59.48;101822.06;5051907;28;20029;-82
2022/02/25 06:50:00;;;;;;;0.10;0.10;;;;;;;7.77;59.06;101834.31;5052648;28;20101;-82
2022/02/25 06:52:26;;;;;;;0.95;0.95;;;;;;;7.89;59.30;101853.78;5053049;28;20025;-82
2022/02/25 06:54:52;;;;;;;0.10;0.10;;;;;;;7.82;59.03;101846.69;5053018;28;20115;-82
2022/02/25 06:57:18;;;;;;;0.10;0.10;;;;;;;7.88;58.40;101860.78;5036456;28;20390;-80
2022/02/25 06:59:45;;;;;;;0.00;0.00;;;;;;;7.88;58.70;101859.94;5051812;28;20435;-81
2022/02/25 07:02:11;;;;;;;0.10;0.10;;;;;;;7.98;58.22;101851.19;5051698;28;20037;-82
2022/02/25 07:04:37;;;;;;;0.10;0.10;;;;;;;7.90;58.45;101895.09;5052712;28;20522;-81
2022/02/25 07:07:04;;;;;;;0.10;0.10;;;;;;;7.91;58.39;101865.22;5047481;28;20088;-80
2022/02/25 07:09:30;;;;;;;0.10;0.10;;;;;;;7.96;58.55;101889.88;5051063;28;20033;-81
2022/02/25 07:11:56;;;;;;;0.10;0.10;;;;;;;8.00;58.01;101880.22;5050547;28;20060;-81
2022/02/25 07:14:22;;;;;;;0.10;0.10;;;;;;;8.08;57.88;101881.19;5037474;28;20087;-83
2022/02/25 07:16:48;;;;;;;0.10;0.10;;;;;;;8.12;58.51;101890.88;5045829;28;20025;-82
2022/02/25 07:19:14;;;;;;;0.10;0.10;;;;;;;8.26;58.28;101893.59;5053305;28;20380;-82
2022/02/25 07:21:40;;;;;;;1.17;1.17;;;;;;;8.16;58.32;101890.03;5045208;28;20159;-82
2022/02/25 07:24:07;;;;;;;0.10;0.10;;;;;;;8.17;57.58;101896.19;5053740;28;20025;-83
2022/02/25 07:26:33;;;;;;;0.38;0.38;;;;;;;8.26;57.64;101896.25;5055575;28;20047;-83
2022/02/25 07:28:59;;;;;;;0.10;0.10;;;;;;;8.34;58.34;101905.09;5048014;28;20056;-82
2022/02/25 07:31:25;;;;;;;0.10;0.10;;;;;;;8.34;57.92;101901.59;5048243;28;20040;-82
2022/02/25 07:33:52;;;;;;;0.00;0.00;;;;;;;8.33;58.26;101911.25;5053386;28;20045;-81
2022/02/25 07:36:18;;;;;;;0.10;0.10;;;;;;;8.43;57.96;101913.06;5056673;28;20033;-81
2022/02/25 07:38:46;;;;;;;0.10;0.10;;;;;;;8.39;57.91;101932.44;5055815;28;20029;-83
2022/02/25 07:41:12;;;;;;;0.10;0.10;;;;;;;8.43;57.72;101930.69;5052807;28;20064;-83
2022/02/25 07:43:38;;;;;;;0.10;0.10;;;;;;;8.43;57.53;101928.91;5046288;28;20102;-81
2022/02/25 07:46:04;;;;;;;0.10;0.10;;;;;;;8.55;57.49;101927.28;5048897;28;20029;-82
2022/02/25 07:48:30;;;;;;;0.10;0.10;;;;;;;8.47;57.48;101929.00;5053299;28;20064;-82
2022/02/25 07:50:56;;;;;;;0.75;0.75;;;;;;;8.58;57.69;101938.75;5047733;28;20136;-82
2022/02/25 07:53:22;;;;;;;0.00;0.00;;;;;;;8.67;57.42;101937.94;5052345;28;20064;-83
2022/02/25 07:55:49;;;;;;;0.10;0.10;;;;;;;8.59;57.19;101939.63;5054254;28;20033;-81
2022/02/25 07:58:15;;;;;;;0.10;0.10;;;;;;;8.55;56.86;101949.28;5052032;28;20095;-83
2022/02/25 08:00:41;;;;;;;0.10;0.10;;;;;;;8.69;56.75;101951.16;5037792;28;20025;-82
2022/02/25 08:03:08;;;;;;;0.10;0.10;;;;;;;8.68;57.06;101971.38;5055343;28;20049;-86
2022/02/25 08:05:34;;;;;;;0.13;0.13;;;;;;;8.93;57.10;101955.66;5055264;28;20071;-84
2022/02/25 08:08:03;;;;;;;0.10;0.10;;;;;;;8.94;56.44;101957.44;5054452;28;20052;-82
2022/02/25 08:10:32;;;;;;;0.10;0.10;;;;;;;8.92;55.86;101976.81;5043445;28;20406;-83
2022/02/25 08:12:59;;;;;;;0.10;0.10;;;;;;;9.00;56.19;101978.59;5050823;28;20362;-81
2022/02/25 08:15:25;;;;;;;0.47;0.47;;;;;;;9.00;55.53;101991.81;5035945;28;20022;-83
2022/02/25 08:17:51;;;;;;;0.10;0.10;;;;;;;8.89;56.02;101989.13;5055481;28;20029;-83
2022/02/25 08:20:17;;;;;;;0.10;0.10;;;;;;;9.02;55.53;102003.28;5056027;28;20503;-82
2022/02/25 08:22:44;;;;;;;0.03;0.03;;;;;;;8.85;55.90;101994.41;5055600;28;20043;-83
2022/02/25 08:25:13;;;;;;;0.10;0.10;;;;;;;9.00;55.36;101998.88;5056148;28;20035;-82
2022/02/25 08:27:39;;;;;;;0.10;0.10;;;;;;;9.02;55.80;101999.75;5055369;28;20052;-84
2022/02/25 08:30:08;;;;;;;0.00;0.00;;;;;;;9.06;55.42;102005.06;5055715;28;20033;-82
2022/02/25 08:32:34;;;;;;;0.10;0.10;;;;;;;9.00;55.40;102006.81;5055461;28;20029;-83
2022/02/25 08:35:00;;;;;;;0.43;0.43;;;;;;;9.11;56.13;102002.47;5054873;28;20029;-83
2022/02/25 08:37:26;;;;;;;0.10;0.10;;;;;;;9.04;56.66;102009.47;5055678;28;20132;-83
2022/02/25 08:39:52;;;;;;;0.10;0.10;;;;;;;8.98;57.08;102016.47;5055606;28;20116;-83
2022/02/25 08:42:18;;;;;;;0.17;0.17;;;;;;;8.81;56.99;102025.22;5055388;28;20078;-83
2022/02/25 08:44:45;;;;;;;0.10;0.10;;;;;;;8.92;57.18;102033.19;5055332;28;20029;-81
2022/02/25 08:47:11;;;;;;;0.10;0.10;;;;;;;8.86;57.07;102049.91;5055419;28;20542;-84
2022/02/25 08:49:37;;;;;;;0.10;0.10;;;;;;;8.81;57.11;102046.34;5055623;28;20090;-83
2022/02/25 08:52:09;;;;;;;0.70;0.70;;;;;;;8.81;56.92;102050.72;5050145;28;20060;-83
2022/02/25 08:54:36;;;;;;;0.10;0.10;;;;;;;8.83;57.06;102051.63;5052322;28;20035;-81
2022/02/25 08:57:02;;;;;;;0.75;0.75;;;;;;;8.85;57.15;102058.69;5054953;28;20037;-82
2022/02/25 08:59:28;;;;;;;1.55;1.05;;;;;;;8.70;57.02;102063.88;5054857;28;20083;-84
2022/02/25 09:01:54;;;;;;;0.10;0.10;;;;;;;8.73;57.17;102064.81;5054029;28;20029;-83
2022/02/25 09:04:20;;;;;;;0.10;0.10;;;;;;;8.75;57.45;102064.81;5045043;28;20120;-83
2022/02/25 09:06:47;;;;;;;0.20;0.20;;;;;;;8.74;57.29;102076.25;5053754;28;20429;-84
2022/02/25 09:09:13;;;;;;;0.10;0.10;;;;;;;8.65;57.77;102092.00;5030400;28;20045;-85
2022/02/25 09:11:39;;;;;;;0.40;0.40;;;;;;;8.64;57.85;102093.78;5048258;28;20076;-82
2022/02/25 09:14:05;;;;;;;0.10;0.10;;;;;;;8.77;57.19;102078.03;5041939;28;20091;-84
2022/02/25 09:16:32;;;;;;;0.10;0.10;;;;;;;8.69;57.17;102078.84;5047324;28;20029;-85
2022/02/25 09:18:58;;;;;;;1.05;1.05;;;;;;;8.92;56.80;102085.16;5043625;28;20025;-84
2022/02/25 09:21:24;;;;;;;0.10;0.10;;;;;;;8.96;56.76;102082.56;5048901;28;20036;-80
2022/02/25 09:23:51;;;;;;;0.10;0.10;;;;;;;8.93;57.37;102093.09;5043768;28;20060;-81
2022/02/25 09:26:17;;;;;;;0.10;0.10;;;;;;;9.04;56.10;102098.47;5052743;28;20424;-81
2022/02/25 09:28:44;;;;;;;0.10;0.10;;;;;;;9.18;56.49;102098.56;5053923;28;20533;-83
2022/02/25 09:31:10;;;;;;;0.10;0.10;;;;;;;9.03;56.62;102105.53;5052227;28;20380;-84
2022/02/25 09:33:36;;;;;;;0.10;0.10;;;;;;;9.14;56.45;102108.22;5053304;28;20112;-84
2022/02/25 09:36:03;;;;;;;0.03;0.03;;;;;;;9.28;56.37;102121.53;5053697;28;20032;-83
2022/02/25 09:38:29;;;;;;;0.10;0.10;;;;;;;9.31;55.80;102115.38;5036972;28;20404;-84
2022/02/25 09:40:56;;;;;;;0.10;0.10;;;;;;;9.17;55.94;102128.50;5045622;28;20048;-80
2022/02/25 09:43:22;;;;;;;0.05;0.05;;;;;;;9.28;56.46;102121.53;5049011;28;20641;-82
2022/02/25 09:45:49;;;;;;;1.17;1.02;;;;;;;9.24;56.49;102127.69;5046620;28;20025;-78
2022/02/25 09:48:15;;;;;;;0.10;0.10;;;;;;;9.21;56.52;102133.84;5050576;28;20029;-84
2022/02/25 09:50:42;;;;;;;0.10;0.10;;;;;;;9.19;56.82;102134.69;5047258;28;20115;-84
2022/02/25 09:53:09;;;;;;;0.10;0.10;;;;;;;9.22;56.97;102137.34;5047926;28;20036;-85
2022/02/25 09:55:35;;;;;;;0.10;0.10;;;;;;;8.93;57.24;102159.19;5038135;28;20113;-84
2022/02/25 09:58:06;;;;;;;0.10;0.10;;;;;;;9.16;57.38;102148.78;5034585;28;20472;-84
2022/02/25 10:00:34;;;;;;;0.10;0.10;;;;;;;9.04;57.16;102149.56;5034540;28;20047;-84
2022/02/25 10:03:04;;;;;;;0.10;0.10;;;;;;;9.19;57.08;102159.38;5034255;28;20087;-84
2022/02/25 10:05:33;;;;;;;0.10;0.10;;;;;;;9.16;56.94;102169.03;5034437;28;20030;-83
2022/02/25 10:08:09;;;;;;;0.10;0.10;;;;;;;9.28;56.69;102160.31;5034071;28;20026;-82
2022/02/25 10:10:53;;;;;;;0.10;0.10;;;;;;;9.29;56.09;102170.03;5034173;28;20436;-83
2022/02/25 10:13:22;;;;;;;0.10;0.10;;;;;;;9.42;55.80;102181.56;5034305;28;20018;-85
2022/02/25 10:15:51;;;;;;;0.10;0.10;;;;;;;9.34;56.11;102210.63;5034011;28;20113;-85
2022/02/25 10:18:27;;;;;;;0.40;0.40;;;;;;;9.37;55.57;102190.38;5044130;28;20021;-81
2022/02/25 10:21:09;;;;;;;0.08;0.08;;;;;;;9.63;55.35;102175.53;5047366;28;20025;-82
2022/02/25 10:26:25;;;;;;;13.25;1.45;;;;;;;9.25;55.56;102192.94;5073632;27;20927;-80
2022/02/25 10:28:55;;;;;;;0.00;0.00;;;;;;;9.48;55.38;102208.06;5053617;28;20033;-82
2022/02/25 10:31:34;;;;;;;0.17;0.17;;;;;;;9.68;54.77;102190.56;5049160;28;20021;-80
2022/02/25 10:37:00;;;;;;;1.38;1.35;;;;;;;10.18;54.42;102209.28;5102262;27;20396;-82
2022/02/25 10:39:30;;;;;;;0.10;0.10;;;;;;;10.19;55.56;102192.53;5089799;28;20032;-82
2022/02/25 10:42:02;;;;;;;0.00;0.00;;;;;;;10.09;55.88;102214.56;5090869;28;20086;-82
2022/02/25 10:47:19;;;;;;;0.10;0.10;;;;;;;9.52;57.21;102237.22;5071395;27;20411;-82
2022/02/25 10:49:48;;;;;;;0.10;0.10;;;;;;;9.30;57.66;102252.03;5070676;28;20063;-82
2022/02/25 10:52:35;;;;;;;0.08;0.08;;;;;;;9.38;57.69;102233.56;5042541;28;20058;-81
2022/02/25 10:55:04;;;;;;;0.10;0.10;;;;;;;9.43;57.44;102236.25;5030257;28;20094;-81
2022/02/25 10:57:33;;;;;;;1.55;0.77;;;;;;;9.43;57.64;102250.34;5030829;28;20030;-82
2022/02/25 11:00:01;;;;;;;0.10;0.10;;;;;;;9.63;57.77;102245.22;5030518;28;20026;-80
2022/02/25 11:02:32;;;;;;;0.10;0.10;;;;;;;9.79;56.68;102266.47;5041790;28;20030;-80
2022/02/25 11:07:46;;;;;;;0.10;0.10;;;;;;;9.79;55.32;102256.75;5051845;27;20490;-83
2022/02/25 11:10:15;;;;;;;0.10;0.10;;;;;;;9.90;55.87;102269.19;5027772;28;20442;-80
2022/02/25 11:12:43;;;;;;;0.10;0.10;;;;;;;9.96;55.29;102270.09;5032239;28;20029;-82
2022/02/25 11:15:13;;;;;;;0.10;0.10;;;;;;;10.28;54.45;102268.47;5029809;28;20026;-82
2022/02/25 11:17:42;;;;;;;0.10;0.10;;;;;;;10.38;54.96;102269.44;5010691;28;20385;-82
2022/02/25 11:20:09;;;;;;;1.23;1.13;;;;;;;10.30;53.93;102293.22;5010821;28;20030;-81
2022/02/25 11:22:39;;;;;;;0.10;0.10;;;;;;;10.29;54.03;102281.75;5011053;28;20034;-81
2022/02/25 11:25:08;;;;;;;0.00;0.00;;;;;;;10.24;54.29;102279.97;5018317;28;20029;-82
2022/02/25 11:27:35;;;;;;;0.10;0.10;;;;;;;10.23;54.09;102275.53;5029603;28;20038;-82
2022/02/25 11:30:07;;;;;;;0.10;0.10;;;;;;;10.12;54.05;102291.38;5029557;28;20036;-81
2022/02/25 11:35:24;;;;;;;0.40;0.40;;;;;;;10.02;53.50;102291.31;5054592;28;20211;-82
2022/02/25 11:37:58;;;;;;;0.10;0.10;;;;;;;9.90;53.50;102306.28;5044245;28;20029;-81
2022/02/25 11:43:47;;;;;;;0.00;0.00;;;;;;;10.18;52.58;102310.84;5072396;27;20431;-82
2022/02/25 11:46:35;;;;;;;0.10;0.10;;;;;;;10.16;52.44;102330.25;5060803;28;20036;-83
2022/02/25 11:49:23;;;;;;;0.00;0.00;;;;;;;10.22;52.69;102314.41;5055021;28;20511;-82
2022/02/25 11:54:40;;;;;;;0.03;0.03;;;;;;;10.37;53.02;102324.22;5078513;27;20434;-82
2022/02/25 12:02:35;;;;;;;0.10;0.10;;;;;;;10.72;51.87;102335.84;5063883;27;20470;-82
2022/02/25 12:07:46;;;;;;;0.10;0.10;;;;;;;10.96;51.91;102341.19;5069423;28;20395;-82